Terminal Aerodrome Forecast
Issued by NWS

Home | Current Version | Previous Version | Text Only | Print | Product List | Glossary On
Versions: 1 2 3 4 5 6 7 8 9 10 11 12 13
000
FTUS45 KABQ 041741
TAFFMN
TAF
KFMN 041741Z 0418/0518 09006KT P6SM VCSH BKN100
     FM042000 14008KT P6SM VCSH SCT060 BKN100
     FM050100 12007KT P6SM VCTS SCT060CB BKN120
     FM050500 VRB06KT P6SM VCSH BKN050 BKN090
     FM051600 14007KT P6SM SCT060 SCT120=

USA.gov is the U.S. government's official web portal to all federal, state and local government web resources and services.